createdAt,value
2022-11-12T00:00:47.571Z,9.80
2022-11-12T00:03:15.080Z,9.43
2022-11-12T00:05:42.663Z,8.83
2022-11-12T00:08:11.614Z,8.80
2022-11-12T00:10:41.958Z,10.30
2022-11-12T00:13:12.237Z,9.23
2022-11-12T00:15:42.078Z,8.77
2022-11-12T00:18:11.704Z,7.60
2022-11-12T00:20:39.330Z,8.73
2022-11-12T00:23:06.971Z,9.27
2022-11-12T00:25:39.215Z,8.47
2022-11-12T00:28:08.228Z,9.87
2022-11-12T00:30:38.112Z,10.00
2022-11-12T00:33:06.531Z,9.23
2022-11-12T00:35:34.928Z,7.20
2022-11-12T00:38:02.771Z,7.73
2022-11-12T00:40:30.737Z,8.20
2022-11-12T00:42:59.677Z,8.40
2022-11-12T00:45:27.445Z,7.80
2022-11-12T00:47:56.391Z,8.33
2022-11-12T00:50:26.785Z,8.47
2022-11-12T00:52:56.497Z,8.80
2022-11-12T00:55:25.397Z,8.80
2022-11-12T00:57:54.289Z,10.27
2022-11-12T01:00:25.067Z,9.23
2022-11-12T01:02:58.586Z,9.80
2022-11-12T01:05:26.327Z,10.10
2022-11-12T01:07:56.165Z,10.50
2022-11-12T01:10:23.974Z,11.40
2022-11-12T01:12:51.583Z,11.10
2022-11-12T01:15:19.181Z,9.57
2022-11-12T01:17:48.046Z,11.93
2022-11-12T01:20:15.589Z,12.00
2022-11-12T01:22:43.261Z,10.27
2022-11-12T01:25:10.763Z,10.37
2022-11-12T01:27:38.295Z,11.00
2022-11-12T01:30:07.109Z,10.07
2022-11-12T01:32:36.209Z,9.70
2022-11-12T01:35:05.678Z,8.53
2022-11-12T01:37:33.237Z,7.07
2022-11-12T01:40:00.748Z,8.43
2022-11-12T01:42:30.767Z,8.73
2022-11-12T01:44:58.324Z,8.00
2022-11-12T01:47:28.177Z,7.90
2022-11-12T01:49:57.936Z,8.23
2022-11-12T01:52:30.779Z,7.90
2022-11-12T01:55:02.528Z,8.03
2022-11-12T01:57:34.773Z,8.30
2022-11-12T02:00:06.007Z,7.80
2022-11-12T02:02:34.181Z,8.73
2022-11-12T02:05:02.866Z,7.40
2022-11-12T02:07:32.176Z,10.00
2022-11-12T02:10:01.185Z,8.33
2022-11-12T02:12:46.309Z,9.20
2022-11-12T02:15:13.910Z,9.10
2022-11-12T02:17:41.475Z,7.50
2022-11-12T02:20:10.791Z,8.90
2022-11-12T02:22:39.669Z,8.07
2022-11-12T02:25:08.521Z,8.23
2022-11-12T02:27:36.162Z,8.40
2022-11-12T02:30:03.887Z,7.20
2022-11-12T02:32:31.506Z,9.13
2022-11-12T02:34:59.037Z,8.73
2022-11-12T02:37:26.571Z,8.00
2022-11-12T02:39:55.427Z,8.30
2022-11-12T02:42:22.930Z,8.10
2022-11-12T02:44:50.545Z,7.60
2022-11-12T02:47:18.077Z,7.77
2022-11-12T02:49:45.655Z,7.63
2022-11-12T02:52:13.211Z,7.37
2022-11-12T02:54:40.705Z,7.70
2022-11-12T02:57:09.606Z,8.03
2022-11-12T02:59:37.133Z,8.17
2022-11-12T03:02:04.623Z,7.83
2022-11-12T03:04:32.121Z,8.40
2022-11-12T03:06:59.639Z,9.03
2022-11-12T03:09:27.173Z,8.20
2022-11-12T03:11:54.758Z,8.43
2022-11-12T03:14:23.712Z,8.33
2022-11-12T03:16:51.235Z,8.03
2022-11-12T03:19:18.741Z,8.47
2022-11-12T03:21:46.301Z,8.27
2022-11-12T03:24:14.074Z,8.27
2022-11-12T03:26:41.588Z,8.80
2022-11-12T03:29:09.081Z,7.17
2022-11-12T03:31:37.958Z,7.77
2022-11-12T03:34:05.764Z,8.20
2022-11-12T03:36:33.358Z,7.87
2022-11-12T03:39:00.878Z,9.30
2022-11-12T03:41:28.393Z,8.33
2022-11-12T03:43:55.853Z,9.43
2022-11-12T03:46:23.344Z,9.43
2022-11-12T03:48:53.124Z,7.43
2022-11-12T03:51:21.246Z,8.73
2022-11-12T03:53:48.748Z,8.20
2022-11-12T03:56:16.236Z,8.43
2022-11-12T03:58:43.742Z,8.73
2022-11-12T04:01:11.302Z,8.97
2022-11-12T04:03:38.862Z,7.23
2022-11-12T04:06:26.077Z,7.83
2022-11-12T04:08:53.568Z,8.73
2022-11-12T04:11:21.107Z,8.63
2022-11-12T04:13:48.582Z,6.97
2022-11-12T04:16:35.213Z,7.83
2022-11-12T04:19:20.956Z,6.73
2022-11-12T04:21:57.210Z,8.03
2022-11-12T04:24:45.177Z,8.53
2022-11-12T04:27:15.828Z,8.70
2022-11-12T04:30:01.345Z,7.17
2022-11-12T04:32:29.441Z,7.30
2022-11-12T04:34:57.358Z,7.33
2022-11-12T04:37:27.916Z,6.63
2022-11-12T04:39:55.904Z,7.37
2022-11-12T04:42:41.318Z,6.57
2022-11-12T04:45:09.534Z,7.50
2022-11-12T04:47:38.484Z,8.00
2022-11-12T04:50:09.234Z,7.90
2022-11-12T04:52:38.092Z,7.03
2022-11-12T04:55:06.746Z,6.63
2022-11-12T04:57:34.319Z,7.43
2022-11-12T05:00:01.812Z,5.67
2022-11-12T05:02:29.310Z,6.20
2022-11-12T05:04:56.776Z,7.47
2022-11-12T05:07:24.274Z,6.27
2022-11-12T05:09:53.100Z,7.63
2022-11-12T05:12:20.681Z,7.50
2022-11-12T05:14:48.164Z,7.40
2022-11-12T05:17:15.672Z,6.47
2022-11-12T05:19:43.217Z,7.10
2022-11-12T05:22:21.971Z,6.57
2022-11-12T05:24:58.683Z,6.83
2022-11-12T05:27:26.449Z,6.27
2022-11-12T05:29:53.948Z,6.70
2022-11-12T05:32:21.501Z,6.83
2022-11-12T05:34:48.988Z,7.77
2022-11-12T05:37:16.673Z,6.37
2022-11-12T05:39:44.170Z,6.10
2022-11-12T05:42:14.324Z,7.47
2022-11-12T05:44:42.109Z,7.63
2022-11-12T05:47:09.587Z,7.90
2022-11-12T05:49:37.034Z,8.63
2022-11-12T05:52:04.752Z,8.50
2022-11-12T05:54:32.233Z,9.87
2022-11-12T05:56:59.792Z,9.80
2022-11-12T05:59:28.610Z,7.80
2022-11-12T06:01:56.099Z,8.90
2022-11-12T06:04:24.440Z,10.03
2022-11-12T06:06:51.932Z,10.13
2022-11-12T06:09:19.471Z,8.40
2022-11-12T06:11:46.966Z,10.33
2022-11-12T06:14:14.599Z,9.30
2022-11-12T06:16:43.571Z,8.93
2022-11-12T06:19:11.087Z,9.83
2022-11-12T06:21:38.565Z,8.90
2022-11-12T06:24:06.669Z,9.10
2022-11-12T06:26:34.187Z,11.57
2022-11-12T06:29:01.689Z,8.87
2022-11-12T06:31:29.194Z,8.13
2022-11-12T06:33:58.021Z,9.60
2022-11-12T06:36:25.511Z,8.73
2022-11-12T06:38:53.046Z,7.90
2022-11-12T06:41:20.635Z,8.40
2022-11-12T06:43:48.141Z,8.97
2022-11-12T06:46:16.695Z,9.10
2022-11-12T06:48:44.283Z,8.17
2022-11-12T06:51:17.675Z,8.07
2022-11-12T06:53:45.449Z,10.03
2022-11-12T06:56:13.834Z,9.40
2022-11-12T06:58:41.459Z,9.57
2022-11-12T07:01:12.111Z,10.33
2022-11-12T07:03:40.632Z,9.80
2022-11-12T07:06:09.950Z,10.53
2022-11-12T07:08:39.359Z,9.93
2022-11-12T07:11:07.253Z,10.60
2022-11-12T07:13:35.688Z,11.70
2022-11-12T07:16:04.777Z,12.40
2022-11-12T07:18:32.644Z,12.73
2022-11-12T07:21:00.905Z,13.80
2022-11-12T07:23:28.779Z,13.53
2022-11-12T07:25:58.900Z,12.53
2022-11-12T07:28:26.844Z,12.13
2022-11-12T07:31:01.464Z,13.03
2022-11-12T07:33:30.087Z,13.30
2022-11-12T07:35:59.216Z,9.73
2022-11-12T07:38:27.398Z,8.13
2022-11-12T07:41:01.470Z,7.47
2022-11-12T07:43:30.073Z,7.93
2022-11-12T07:46:04.769Z,6.90
2022-11-12T07:48:35.399Z,6.73
2022-11-12T07:51:04.125Z,7.00
2022-11-12T07:53:31.901Z,6.40
2022-11-12T07:56:04.414Z,7.77
2022-11-12T07:58:34.390Z,8.80
2022-11-12T08:01:08.499Z,7.80
2022-11-12T08:03:37.501Z,9.70
2022-11-12T08:06:10.817Z,8.07
2022-11-12T08:08:38.584Z,9.03
2022-11-12T08:11:08.938Z,10.87
2022-11-12T08:13:37.885Z,11.27
2022-11-12T08:16:06.251Z,10.70
2022-11-12T08:18:34.193Z,10.90
2022-11-12T08:21:06.073Z,11.00
2022-11-12T08:23:34.935Z,9.33
2022-11-12T08:26:03.766Z,12.03
2022-11-12T08:28:37.162Z,12.63
2022-11-12T08:31:06.947Z,12.47
2022-11-12T08:33:34.750Z,12.60
2022-11-12T08:36:04.037Z,13.27
2022-11-12T08:38:31.856Z,13.10
2022-11-12T08:41:01.659Z,13.97
2022-11-12T08:43:29.330Z,13.80
2022-11-12T08:46:00.015Z,14.80
2022-11-12T08:48:30.988Z,13.83
2022-11-12T08:50:59.008Z,14.27
2022-11-12T08:53:27.883Z,15.37
2022-11-12T08:55:55.700Z,14.83
2022-11-12T08:58:24.151Z,14.80
2022-11-12T09:00:52.728Z,15.93
2022-11-12T09:03:24.013Z,15.97
2022-11-12T09:05:52.266Z,17.20
2022-11-12T09:08:21.977Z,15.10
2022-11-12T09:10:50.267Z,17.07
2022-11-12T09:13:18.339Z,18.37
2022-11-12T09:15:46.532Z,15.10
2022-11-12T09:18:16.334Z,15.83
2022-11-12T09:20:45.801Z,15.53
2022-11-12T09:23:14.746Z,16.20
2022-11-12T09:25:43.038Z,15.87
2022-11-12T09:28:11.714Z,14.80
2022-11-12T09:30:42.695Z,17.63
2022-11-12T09:33:10.355Z,14.77
2022-11-12T09:35:37.889Z,15.87
2022-11-12T09:38:06.806Z,14.27
2022-11-12T09:40:57.251Z,16.77
2022-11-12T09:43:27.243Z,15.27
2022-11-12T09:46:13.853Z,15.47
2022-11-12T09:48:46.189Z,14.80
2022-11-12T09:51:18.008Z,16.20
2022-11-12T09:53:50.371Z,14.50
2022-11-12T09:56:20.013Z,15.50
2022-11-12T09:58:47.856Z,15.40
2022-11-12T10:01:17.990Z,15.10
2022-11-12T10:03:54.435Z,14.13
2022-11-12T10:06:23.893Z,13.10
2022-11-12T10:08:54.752Z,13.67
2022-11-12T10:12:01.268Z,15.37
2022-11-12T10:14:44.525Z,14.20
2022-11-12T10:17:15.256Z,16.93
2022-11-12T10:19:51.085Z,14.30
2022-11-12T10:22:27.884Z,16.47
2022-11-12T10:24:57.646Z,14.57
2022-11-12T10:27:29.471Z,16.10
2022-11-12T10:30:01.306Z,15.20
2022-11-12T10:32:28.946Z,15.17
2022-11-12T10:34:56.447Z,15.23
2022-11-12T10:37:27.459Z,15.30
2022-11-12T10:39:56.358Z,17.10
2022-11-12T10:42:24.283Z,15.70
2022-11-12T10:44:52.720Z,16.67
2022-11-12T10:47:23.691Z,18.43
2022-11-12T10:50:05.002Z,16.53
2022-11-12T10:52:32.742Z,16.60
2022-11-12T10:55:16.538Z,17.03
2022-11-12T10:57:44.119Z,19.10
2022-11-12T11:00:22.308Z,17.87
2022-11-12T11:02:52.492Z,16.37
2022-11-12T11:05:32.819Z,17.00
2022-11-12T11:08:01.559Z,18.10
2022-11-12T11:10:32.727Z,17.40
2022-11-12T11:13:10.676Z,17.63
2022-11-12T11:15:40.162Z,18.30
2022-11-12T11:18:10.016Z,17.90
2022-11-12T11:20:44.628Z,16.77
2022-11-12T11:23:17.125Z,19.77
2022-11-12T11:25:48.023Z,19.10
2022-11-12T11:28:23.043Z,18.37
2022-11-12T11:30:54.989Z,16.23
2022-11-12T11:33:26.867Z,18.27
2022-11-12T11:36:00.780Z,19.40
2022-11-12T11:38:35.800Z,19.30
2022-11-12T11:41:19.724Z,19.13
2022-11-12T11:43:55.225Z,18.50
2022-11-12T11:46:51.318Z,17.30
2022-11-12T11:49:40.089Z,20.80
2022-11-12T11:52:13.222Z,28.93
2022-11-12T11:54:55.067Z,20.60
2022-11-12T11:57:29.916Z,24.03
2022-11-12T12:00:06.255Z,22.70
2022-11-12T12:02:45.643Z,21.03
2022-11-12T12:05:25.923Z,40.40
2022-11-12T12:07:58.284Z,25.10
2022-11-12T12:10:40.225Z,23.30
2022-11-12T12:13:22.577Z,18.70
2022-11-12T12:16:02.097Z,23.87
2022-11-12T12:18:37.047Z,22.70
2022-11-12T12:21:07.775Z,19.27
2022-11-12T12:23:38.551Z,18.43
2022-11-12T12:26:09.243Z,18.13
2022-11-12T12:28:41.390Z,19.13
2022-11-12T12:31:12.870Z,18.10
2022-11-12T12:33:45.267Z,17.57
2022-11-12T12:36:17.333Z,17.50
2022-11-12T12:38:47.657Z,18.90
2022-11-12T12:41:19.546Z,18.73
2022-11-12T12:43:52.321Z,16.30
2022-11-12T12:46:23.876Z,16.77
2022-11-12T12:48:53.982Z,16.80
2022-11-12T12:51:22.071Z,16.90
2022-11-12T12:53:49.673Z,16.87
2022-11-12T12:56:43.511Z,17.23
2022-11-12T12:59:21.280Z,16.33
2022-11-12T13:01:56.253Z,15.60
2022-11-12T13:04:52.381Z,15.27
2022-11-12T13:07:23.737Z,17.13
2022-11-12T13:09:51.278Z,15.33
2022-11-12T13:12:24.818Z,17.83
2022-11-12T13:15:21.999Z,15.90
2022-11-12T13:17:53.090Z,14.90
2022-11-12T13:20:39.540Z,16.50
2022-11-12T13:24:03.712Z,16.90
2022-11-12T13:26:59.682Z,17.27
2022-11-12T13:29:45.513Z,19.07
2022-11-12T13:32:34.723Z,18.60
2022-11-12T13:35:34.684Z,17.50
2022-11-12T13:38:05.778Z,15.47
2022-11-12T13:40:47.512Z,14.00
2022-11-12T13:43:27.556Z,16.83
2022-11-12T13:45:58.369Z,14.93
2022-11-12T13:48:29.350Z,18.80
2022-11-12T13:51:02.998Z,14.90
2022-11-12T13:53:32.960Z,14.13
2022-11-12T13:56:05.051Z,14.07
2022-11-12T13:58:35.078Z,14.07
2022-11-12T14:01:04.060Z,14.60
2022-11-12T14:03:35.190Z,16.40
2022-11-12T14:06:07.101Z,15.80
2022-11-12T14:08:56.701Z,29.03
2022-11-12T14:11:44.611Z,22.20
2022-11-12T14:14:21.592Z,16.90
2022-11-12T14:16:58.435Z,21.30
2022-11-12T14:19:53.843Z,22.57
2022-11-12T14:22:22.331Z,17.70
2022-11-12T14:24:53.379Z,18.63
2022-11-12T14:27:25.575Z,19.00
2022-11-12T14:30:16.796Z,14.67
2022-11-12T14:32:46.038Z,16.97
2022-11-12T14:35:43.827Z,14.83
2022-11-12T14:38:14.602Z,13.40
2022-11-12T14:40:47.883Z,13.77
2022-11-12T14:43:27.403Z,14.23
2022-11-12T14:45:59.157Z,15.73
2022-11-12T14:48:27.158Z,14.57
2022-11-12T14:50:59.564Z,13.27
2022-11-12T14:53:35.837Z,14.10
2022-11-12T14:56:05.409Z,13.80
2022-11-12T14:58:36.717Z,14.37
2022-11-12T15:02:08.534Z,13.10
2022-11-12T15:04:19.888Z,12.20
2022-11-12T15:06:53.741Z,12.90
2022-11-12T15:09:33.878Z,13.20
2022-11-12T15:12:05.681Z,13.60
2022-11-12T15:14:35.678Z,12.80
2022-11-12T15:17:06.005Z,16.33
2022-11-12T15:19:33.922Z,17.67
2022-11-12T15:22:02.938Z,13.90
2022-11-12T15:24:38.977Z,14.50
2022-11-12T15:27:35.482Z,24.93
2022-11-12T15:30:16.239Z,20.57
2022-11-12T15:32:46.237Z,15.43
2022-11-12T15:35:33.681Z,13.10
2022-11-12T15:38:03.133Z,13.50
2022-11-12T15:40:32.103Z,16.10
2022-11-12T15:43:00.369Z,13.57
2022-11-12T15:45:28.125Z,13.60
2022-11-12T15:47:57.147Z,13.23
2022-11-12T15:50:26.000Z,13.40
2022-11-12T15:52:53.838Z,14.20
2022-11-12T15:55:21.643Z,16.17
2022-11-12T15:57:50.665Z,13.47
2022-11-12T16:00:20.063Z,14.63
2022-11-12T16:02:48.985Z,13.33
2022-11-12T16:05:19.226Z,14.40
2022-11-12T16:08:13.870Z,14.70
2022-11-12T16:10:43.378Z,15.90
2022-11-12T16:13:16.777Z,15.63
2022-11-12T16:15:44.612Z,15.60
2022-11-12T16:18:12.558Z,18.27
2022-11-12T16:20:41.734Z,16.33
2022-11-12T16:23:09.511Z,20.07
2022-11-12T16:25:38.653Z,24.97
2022-11-12T16:28:11.668Z,22.80
2022-11-12T16:30:39.396Z,19.50
2022-11-12T16:33:07.106Z,18.23
2022-11-12T16:35:36.123Z,17.90
2022-11-12T16:38:05.543Z,25.60
2022-11-12T16:40:33.301Z,20.50
2022-11-12T16:43:00.963Z,22.60
2022-11-12T16:45:35.560Z,16.80
2022-11-12T16:48:12.407Z,16.97
2022-11-12T16:50:40.262Z,20.00
2022-11-12T16:53:09.358Z,15.77
2022-11-12T16:55:37.097Z,20.53
2022-11-12T16:58:04.809Z,18.33
2022-11-12T17:00:34.011Z,19.00
2022-11-12T17:03:01.769Z,17.07
2022-11-12T17:05:29.434Z,15.40
2022-11-12T17:07:58.596Z,20.93
2022-11-12T17:10:31.597Z,17.47
2022-11-12T17:12:59.443Z,14.13
2022-11-12T17:15:27.388Z,16.23
2022-11-12T17:17:55.246Z,15.60
2022-11-12T17:20:23.051Z,17.67
2022-11-12T17:22:50.673Z,11.77
2022-11-12T17:25:18.602Z,13.57
2022-11-12T17:27:47.721Z,15.77
2022-11-12T17:30:15.742Z,18.77
2022-11-12T17:32:43.828Z,15.30
2022-11-12T17:35:11.519Z,13.73
2022-11-12T17:37:39.269Z,16.50
2022-11-12T17:40:08.480Z,24.20
2022-11-12T17:42:36.261Z,19.00
2022-11-12T17:45:06.115Z,12.43
2022-11-12T17:47:39.320Z,15.97
2022-11-12T17:50:10.875Z,13.33
2022-11-12T17:52:38.530Z,12.50
2022-11-12T17:55:09.374Z,12.13
2022-11-12T17:57:37.195Z,12.67
2022-11-12T18:00:07.908Z,14.63
2022-11-12T18:02:35.778Z,12.80
2022-11-12T18:05:07.678Z,18.73
2022-11-12T18:07:35.566Z,17.00
2022-11-12T18:10:03.543Z,13.70
2022-11-12T18:12:31.267Z,13.60
2022-11-12T18:14:58.896Z,13.80
2022-11-12T18:17:28.332Z,13.83
2022-11-12T18:19:55.981Z,12.80
2022-11-12T18:22:23.657Z,11.00
2022-11-12T18:24:52.766Z,14.07
2022-11-12T18:27:20.509Z,13.27
2022-11-12T18:29:48.269Z,12.90
2022-11-12T18:32:16.047Z,13.37
2022-11-12T18:34:46.034Z,15.10
2022-11-12T18:37:13.660Z,15.93
2022-11-12T18:39:41.240Z,15.60
2022-11-12T18:42:08.828Z,15.03
2022-11-12T18:44:36.753Z,14.20
2022-11-12T18:47:04.281Z,12.50
2022-11-12T18:49:31.849Z,14.17
2022-11-12T18:52:00.679Z,14.97
2022-11-12T18:54:28.187Z,15.33
2022-11-12T18:56:55.766Z,12.47
2022-11-12T18:59:24.249Z,12.30
2022-11-12T19:01:51.768Z,11.27
2022-11-12T19:04:19.343Z,13.23
2022-11-12T19:06:47.002Z,9.97
2022-11-12T19:09:16.035Z,12.57
2022-11-12T19:11:43.881Z,12.40
2022-11-12T19:14:12.040Z,13.20
2022-11-12T19:16:44.701Z,12.00
2022-11-12T19:19:12.842Z,11.23
2022-11-12T19:21:40.818Z,11.20
2022-11-12T19:24:21.568Z,12.60
2022-11-12T19:26:52.679Z,12.37
2022-11-12T19:29:51.382Z,11.13
2022-11-12T19:32:18.362Z,11.63
2022-11-12T19:34:49.563Z,13.43
2022-11-12T19:37:33.059Z,10.27
2022-11-12T19:40:06.239Z,10.60
2022-11-12T19:42:38.185Z,10.33
2022-11-12T19:45:08.863Z,12.30
2022-11-12T19:47:54.659Z,12.20
2022-11-12T19:50:32.767Z,14.20
2022-11-12T19:53:00.364Z,11.23
2022-11-12T19:55:38.653Z,10.80
2022-11-12T19:58:09.496Z,13.60
2022-11-12T20:00:40.806Z,10.50
2022-11-12T20:03:08.838Z,14.33
2022-11-12T20:05:36.420Z,9.70
2022-11-12T20:08:04.790Z,12.50
2022-11-12T20:10:38.095Z,14.47
2022-11-12T20:13:13.123Z,12.20
2022-11-12T20:15:47.097Z,13.97
2022-11-12T20:18:14.913Z,11.57
2022-11-12T20:20:47.016Z,11.60
2022-11-12T20:23:16.215Z,14.77
2022-11-12T20:25:47.389Z,15.00
2022-11-12T20:28:16.759Z,16.13
2022-11-12T20:30:54.961Z,13.03
2022-11-12T20:33:22.936Z,13.57
2022-11-12T20:35:50.683Z,14.50
2022-11-12T20:38:18.341Z,14.83
2022-11-12T20:40:48.218Z,17.47
2022-11-12T20:43:16.426Z,11.07
2022-11-12T20:45:51.222Z,13.70
2022-11-12T20:48:20.410Z,14.17
2022-11-12T20:51:16.782Z,13.40
2022-11-12T20:53:40.803Z,17.30
2022-11-12T20:56:09.992Z,15.03
2022-11-12T21:01:36.707Z,12.20
2022-11-12T21:04:06.036Z,10.70
2022-11-12T21:06:33.693Z,12.07
2022-11-12T21:09:01.411Z,12.90
2022-11-12T21:11:31.322Z,10.20
2022-11-12T21:14:00.053Z,11.97
2022-11-12T21:16:30.572Z,10.77
2022-11-12T21:19:06.849Z,11.00
2022-11-12T21:21:36.079Z,12.97
2022-11-12T21:24:06.775Z,14.20
2022-11-12T21:26:36.873Z,13.87
2022-11-12T21:29:22.883Z,17.77
2022-11-12T21:31:52.642Z,13.77
2022-11-12T21:35:20.986Z,12.30
2022-11-12T21:37:48.544Z,11.17
2022-11-12T21:40:27.654Z,17.17
2022-11-12T21:42:55.444Z,12.30
2022-11-12T21:45:23.112Z,9.30
2022-11-12T21:47:50.833Z,14.03
2022-11-12T21:50:20.114Z,15.47
2022-11-12T21:53:13.908Z,11.07
2022-11-12T21:55:50.506Z,11.23
2022-11-12T21:58:18.366Z,11.90
2022-11-12T22:00:52.209Z,10.57
2022-11-12T22:03:22.696Z,10.03
2022-11-12T22:05:52.088Z,9.87
2022-11-12T22:08:33.222Z,10.03
2022-11-12T22:11:08.186Z,11.10
2022-11-12T22:20:43.064Z,10.23
2022-11-12T22:23:20.552Z,9.80
2022-11-12T22:26:40.956Z,11.20
2022-11-12T22:28:42.722Z,9.60
2022-11-12T22:31:14.087Z,10.10
2022-11-12T22:33:46.398Z,10.97
2022-11-12T22:36:22.636Z,9.77
2022-11-12T22:39:14.627Z,10.83
2022-11-12T22:41:48.147Z,11.00
2022-11-12T22:44:26.273Z,10.50
2022-11-12T22:46:55.211Z,10.20
2022-11-12T22:49:27.752Z,9.27
2022-11-12T22:51:55.509Z,10.47
2022-11-12T22:55:44.688Z,10.10
2022-11-12T22:57:45.916Z,9.30
2022-11-12T23:00:16.361Z,11.10
2022-11-12T23:02:58.297Z,9.90
2022-11-12T23:05:28.425Z,8.73
2022-11-12T23:08:03.204Z,9.07
2022-11-12T23:10:39.415Z,9.33
2022-11-12T23:13:26.591Z,8.13
2022-11-12T23:15:54.610Z,8.10
2022-11-12T23:18:27.007Z,9.47
2022-11-12T23:21:07.797Z,8.97
2022-11-12T23:23:48.564Z,8.23
2022-11-12T23:26:29.630Z,9.27
2022-11-12T23:28:57.526Z,8.73
2022-11-12T23:31:27.228Z,8.10
2022-11-12T23:33:56.055Z,10.50
2022-11-12T23:36:24.697Z,8.57
2022-11-12T23:38:52.603Z,9.20
2022-11-12T23:41:25.661Z,9.83
2022-11-12T23:43:54.280Z,8.63
2022-11-12T23:46:21.916Z,10.30
2022-11-12T23:48:50.916Z,8.93
2022-11-12T23:51:20.498Z,8.93
2022-11-12T23:53:50.215Z,10.13
2022-11-12T23:56:19.353Z,8.73
2022-11-12T23:58:50.734Z,10.73
